sensor_id;sensor_type;location;lat;lon;timestamp;P1;durP1;ratioP1;P2;durP2;ratioP2
61477;SDS011;47345;52.334;10.392;2023-07-31T00:01:05;2.90;;;1.80;;
61477;SDS011;47345;52.334;10.392;2023-07-31T00:03:36;3.40;;;1.80;;
61477;SDS011;47345;52.334;10.392;2023-07-31T00:06:07;3.00;;;2.00;;
61477;SDS011;47345;52.334;10.392;2023-07-31T00:08:38;3.10;;;1.80;;
61477;SDS011;47345;52.334;10.392;2023-07-31T00:11:09;2.50;;;1.50;;
61477;SDS011;47345;52.334;10.392;2023-07-31T00:13:40;4.90;;;1.90;;
61477;SDS011;47345;52.334;10.392;2023-07-31T00:16:10;4.30;;;1.90;;
61477;SDS011;47345;52.334;10.392;2023-07-31T00:18:41;5.40;;;2.00;;
61477;SDS011;47345;52.334;10.392;2023-07-31T00:21:12;2.80;;;1.70;;
61477;SDS011;47345;52.334;10.392;2023-07-31T00:23:43;2.50;;;1.70;;
61477;SDS011;47345;52.334;10.392;2023-07-31T00:26:14;3.10;;;1.70;;
61477;SDS011;47345;52.334;10.392;2023-07-31T00:28:45;3.40;;;1.90;;
61477;SDS011;47345;52.334;10.392;2023-07-31T00:31:16;2.50;;;1.70;;
61477;SDS011;47345;52.334;10.392;2023-07-31T00:33:46;8.10;;;1.90;;
61477;SDS011;47345;52.334;10.392;2023-07-31T00:36:17;4.60;;;1.90;;
61477;SDS011;47345;52.334;10.392;2023-07-31T00:38:48;5.90;;;2.00;;
61477;SDS011;47345;52.334;10.392;2023-07-31T00:41:19;2.70;;;1.80;;
61477;SDS011;47345;52.334;10.392;2023-07-31T00:43:50;2.90;;;2.00;;
61477;SDS011;47345;52.334;10.392;2023-07-31T00:46:21;4.20;;;1.90;;
61477;SDS011;47345;52.334;10.392;2023-07-31T00:48:51;2.20;;;1.70;;
61477;SDS011;47345;52.334;10.392;2023-07-31T00:51:24;2.40;;;1.80;;
61477;SDS011;47345;52.334;10.392;2023-07-31T00:53:55;2.30;;;2.10;;
61477;SDS011;47345;52.334;10.392;2023-07-31T00:56:26;3.00;;;1.80;;
61477;SDS011;47345;52.334;10.392;2023-07-31T00:58:58;3.00;;;2.00;;
61477;SDS011;47345;52.334;10.392;2023-07-31T01:01:29;5.20;;;1.80;;
61477;SDS011;47345;52.334;10.392;2023-07-31T01:04:00;2.60;;;1.70;;
61477;SDS011;47345;52.334;10.392;2023-07-31T01:06:33;4.80;;;1.80;;
61477;SDS011;47345;52.334;10.392;2023-07-31T01:09:11;2.40;;;1.80;;
61477;SDS011;47345;52.334;10.392;2023-07-31T01:11:50;2.20;;;1.70;;
61477;SDS011;47345;52.334;10.392;2023-07-31T01:14:25;4.10;;;1.80;;
61477;SDS011;47345;52.334;10.392;2023-07-31T01:16:58;3.10;;;1.60;;
61477;SDS011;47345;52.334;10.392;2023-07-31T01:19:29;2.50;;;1.90;;
61477;SDS011;47345;52.334;10.392;2023-07-31T01:22:12;2.80;;;1.90;;
61477;SDS011;47345;52.334;10.392;2023-07-31T01:24:57;4.60;;;2.00;;
61477;SDS011;47345;52.334;10.392;2023-07-31T01:27:40;2.70;;;1.70;;
61477;SDS011;47345;52.334;10.392;2023-07-31T01:30:19;3.00;;;1.70;;
61477;SDS011;47345;52.334;10.392;2023-07-31T01:32:54;7.30;;;2.30;;
61477;SDS011;47345;52.334;10.392;2023-07-31T01:35:26;4.10;;;1.90;;
61477;SDS011;47345;52.334;10.392;2023-07-31T01:37:57;3.50;;;2.00;;
61477;SDS011;47345;52.334;10.392;2023-07-31T01:40:28;3.10;;;1.70;;
61477;SDS011;47345;52.334;10.392;2023-07-31T01:42:59;3.20;;;1.70;;
61477;SDS011;47345;52.334;10.392;2023-07-31T01:45:30;5.10;;;1.80;;
61477;SDS011;47345;52.334;10.392;2023-07-31T01:48:01;3.90;;;1.80;;
61477;SDS011;47345;52.334;10.392;2023-07-31T01:50:32;4.10;;;1.80;;
61477;SDS011;47345;52.334;10.392;2023-07-31T01:53:03;7.90;;;2.10;;
61477;SDS011;47345;52.334;10.392;2023-07-31T01:55:34;4.60;;;1.70;;
61477;SDS011;47345;52.334;10.392;2023-07-31T01:58:06;6.50;;;1.80;;
61477;SDS011;47345;52.334;10.392;2023-07-31T02:00:37;7.40;;;2.10;;
61477;SDS011;47345;52.334;10.392;2023-07-31T02:03:07;4.00;;;2.10;;
61477;SDS011;47345;52.334;10.392;2023-07-31T02:05:44;2.20;;;1.60;;
61477;SDS011;47345;52.334;10.392;2023-07-31T02:08:15;4.20;;;1.80;;
61477;SDS011;47345;52.334;10.392;2023-07-31T02:10:47;5.10;;;1.50;;
61477;SDS011;47345;52.334;10.392;2023-07-31T02:13:17;2.50;;;1.40;;
61477;SDS011;47345;52.334;10.392;2023-07-31T02:15:48;2.80;;;1.40;;
61477;SDS011;47345;52.334;10.392;2023-07-31T02:18:19;2.10;;;1.40;;
61477;SDS011;47345;52.334;10.392;2023-07-31T02:20:50;3.50;;;1.50;;
61477;SDS011;47345;52.334;10.392;2023-07-31T02:23:21;2.40;;;2.10;;
61477;SDS011;47345;52.334;10.392;2023-07-31T02:25:52;1.70;;;1.30;;
61477;SDS011;47345;52.334;10.392;2023-07-31T02:28:23;5.90;;;1.60;;
61477;SDS011;47345;52.334;10.392;2023-07-31T02:30:54;1.10;;;1.10;;
61477;SDS011;47345;52.334;10.392;2023-07-31T02:33:25;3.80;;;1.20;;
61477;SDS011;47345;52.334;10.392;2023-07-31T02:35:55;1.40;;;1.20;;
61477;SDS011;47345;52.334;10.392;2023-07-31T02:38:26;1.40;;;1.30;;
61477;SDS011;47345;52.334;10.392;2023-07-31T02:40:57;6.10;;;1.40;;
61477;SDS011;47345;52.334;10.392;2023-07-31T02:43:28;2.90;;;1.20;;
61477;SDS011;47345;52.334;10.392;2023-07-31T02:45:59;3.70;;;1.40;;
61477;SDS011;47345;52.334;10.392;2023-07-31T02:48:31;1.90;;;1.50;;
61477;SDS011;47345;52.334;10.392;2023-07-31T02:51:02;1.80;;;1.20;;
61477;SDS011;47345;52.334;10.392;2023-07-31T02:53:33;2.40;;;1.30;;
61477;SDS011;47345;52.334;10.392;2023-07-31T02:56:04;3.50;;;1.40;;
61477;SDS011;47345;52.334;10.392;2023-07-31T02:58:35;2.10;;;1.30;;
61477;SDS011;47345;52.334;10.392;2023-07-31T03:01:06;2.10;;;1.40;;
61477;SDS011;47345;52.334;10.392;2023-07-31T03:03:36;1.20;;;1.10;;
61477;SDS011;47345;52.334;10.392;2023-07-31T03:06:07;1.70;;;1.20;;
61477;SDS011;47345;52.334;10.392;2023-07-31T03:08:39;1.40;;;1.30;;
61477;SDS011;47345;52.334;10.392;2023-07-31T03:11:09;2.30;;;1.10;;
61477;SDS011;47345;52.334;10.392;2023-07-31T03:13:40;1.10;;;1.00;;
61477;SDS011;47345;52.334;10.392;2023-07-31T03:16:10;6.80;;;1.30;;
61477;SDS011;47345;52.334;10.392;2023-07-31T03:18:41;2.50;;;1.40;;
61477;SDS011;47345;52.334;10.392;2023-07-31T03:21:12;2.50;;;1.60;;
61477;SDS011;47345;52.334;10.392;2023-07-31T03:23:43;3.60;;;1.20;;
61477;SDS011;47345;52.334;10.392;2023-07-31T03:26:14;1.80;;;1.40;;
61477;SDS011;47345;52.334;10.392;2023-07-31T03:28:45;1.40;;;1.30;;
61477;SDS011;47345;52.334;10.392;2023-07-31T03:31:17;1.90;;;1.70;;
61477;SDS011;47345;52.334;10.392;2023-07-31T03:33:48;2.10;;;1.40;;
61477;SDS011;47345;52.334;10.392;2023-07-31T03:36:19;1.60;;;1.50;;
61477;SDS011;47345;52.334;10.392;2023-07-31T03:38:50;1.40;;;1.30;;
61477;SDS011;47345;52.334;10.392;2023-07-31T03:41:21;6.10;;;1.40;;
61477;SDS011;47345;52.334;10.392;2023-07-31T03:43:52;2.00;;;1.20;;
61477;SDS011;47345;52.334;10.392;2023-07-31T03:46:24;2.00;;;1.40;;
61477;SDS011;47345;52.334;10.392;2023-07-31T03:48:55;2.20;;;1.70;;
61477;SDS011;47345;52.334;10.392;2023-07-31T03:51:26;2.40;;;1.00;;
61477;SDS011;47345;52.334;10.392;2023-07-31T03:53:56;2.10;;;1.50;;
61477;SDS011;47345;52.334;10.392;2023-07-31T03:56:27;3.00;;;1.40;;
61477;SDS011;47345;52.334;10.392;2023-07-31T03:59:02;2.60;;;1.70;;
61477;SDS011;47345;52.334;10.392;2023-07-31T04:01:33;3.30;;;1.50;;
61477;SDS011;47345;52.334;10.392;2023-07-31T04:04:05;3.60;;;1.40;;
61477;SDS011;47345;52.334;10.392;2023-07-31T04:06:36;4.40;;;1.60;;
61477;SDS011;47345;52.334;10.392;2023-07-31T04:09:07;2.30;;;1.20;;
61477;SDS011;47345;52.334;10.392;2023-07-31T04:11:38;4.40;;;1.30;;
61477;SDS011;47345;52.334;10.392;2023-07-31T04:14:09;2.90;;;1.60;;
61477;SDS011;47345;52.334;10.392;2023-07-31T04:16:40;1.30;;;1.20;;
61477;SDS011;47345;52.334;10.392;2023-07-31T04:19:11;1.60;;;1.20;;
61477;SDS011;47345;52.334;10.392;2023-07-31T04:21:44;1.60;;;1.50;;
61477;SDS011;47345;52.334;10.392;2023-07-31T04:24:16;5.90;;;1.40;;
61477;SDS011;47345;52.334;10.392;2023-07-31T04:26:52;2.30;;;1.40;;
61477;SDS011;47345;52.334;10.392;2023-07-31T04:29:22;3.50;;;1.20;;
61477;SDS011;47345;52.334;10.392;2023-07-31T04:31:53;1.50;;;1.10;;
61477;SDS011;47345;52.334;10.392;2023-07-31T04:34:24;0.90;;;0.90;;
61477;SDS011;47345;52.334;10.392;2023-07-31T04:36:55;2.10;;;1.10;;
61477;SDS011;47345;52.334;10.392;2023-07-31T04:39:26;1.10;;;1.10;;
61477;SDS011;47345;52.334;10.392;2023-07-31T04:41:56;2.20;;;1.20;;
61477;SDS011;47345;52.334;10.392;2023-07-31T04:44:27;3.40;;;1.20;;
61477;SDS011;47345;52.334;10.392;2023-07-31T04:46:58;3.20;;;1.10;;
61477;SDS011;47345;52.334;10.392;2023-07-31T04:49:29;1.30;;;1.10;;
61477;SDS011;47345;52.334;10.392;2023-07-31T04:52:01;2.40;;;1.30;;
61477;SDS011;47345;52.334;10.392;2023-07-31T04:54:33;0.80;;;0.80;;
61477;SDS011;47345;52.334;10.392;2023-07-31T04:57:04;0.90;;;0.90;;
61477;SDS011;47345;52.334;10.392;2023-07-31T04:59:36;1.00;;;1.00;;
61477;SDS011;47345;52.334;10.392;2023-07-31T05:02:07;2.50;;;1.20;;
61477;SDS011;47345;52.334;10.392;2023-07-31T05:04:39;1.10;;;1.10;;
61477;SDS011;47345;52.334;10.392;2023-07-31T05:07:09;1.30;;;1.20;;
61477;SDS011;47345;52.334;10.392;2023-07-31T05:09:40;1.60;;;1.10;;
61477;SDS011;47345;52.334;10.392;2023-07-31T05:12:11;2.20;;;1.20;;
61477;SDS011;47345;52.334;10.392;2023-07-31T05:14:42;1.50;;;1.00;;
61477;SDS011;47345;52.334;10.392;2023-07-31T05:17:13;1.40;;;1.10;;
61477;SDS011;47345;52.334;10.392;2023-07-31T05:19:44;1.30;;;1.20;;
61477;SDS011;47345;52.334;10.392;2023-07-31T05:22:15;1.30;;;1.20;;
61477;SDS011;47345;52.334;10.392;2023-07-31T05:24:46;2.70;;;1.30;;
61477;SDS011;47345;52.334;10.392;2023-07-31T05:27:17;2.90;;;1.40;;
61477;SDS011;47345;52.334;10.392;2023-07-31T05:29:47;2.20;;;1.40;;
61477;SDS011;47345;52.334;10.392;2023-07-31T05:32:18;1.00;;;1.00;;
61477;SDS011;47345;52.334;10.392;2023-07-31T05:34:51;1.90;;;1.10;;
61477;SDS011;47345;52.334;10.392;2023-07-31T05:37:22;1.20;;;1.20;;
61477;SDS011;47345;52.334;10.392;2023-07-31T05:39:53;1.30;;;1.20;;
61477;SDS011;47345;52.334;10.392;2023-07-31T05:42:25;1.60;;;1.30;;
61477;SDS011;47345;52.334;10.392;2023-07-31T05:44:55;2.30;;;1.20;;
61477;SDS011;47345;52.334;10.392;2023-07-31T05:47:26;3.00;;;1.20;;
61477;SDS011;47345;52.334;10.392;2023-07-31T05:49:57;1.00;;;0.90;;
61477;SDS011;47345;52.334;10.392;2023-07-31T05:52:28;1.30;;;1.00;;
61477;SDS011;47345;52.334;10.392;2023-07-31T05:54:59;1.20;;;1.10;;
61477;SDS011;47345;52.334;10.392;2023-07-31T05:57:30;2.60;;;0.90;;
61477;SDS011;47345;52.334;10.392;2023-07-31T06:00:02;1.00;;;0.90;;
61477;SDS011;47345;52.334;10.392;2023-07-31T06:02:34;1.30;;;1.20;;
61477;SDS011;47345;52.334;10.392;2023-07-31T06:05:05;1.30;;;1.20;;
61477;SDS011;47345;52.334;10.392;2023-07-31T06:07:37;2.10;;;1.20;;
61477;SDS011;47345;52.334;10.392;2023-07-31T06:10:09;1.50;;;1.20;;
61477;SDS011;47345;52.334;10.392;2023-07-31T06:12:40;1.30;;;1.20;;
61477;SDS011;47345;52.334;10.392;2023-07-31T06:15:11;3.90;;;1.20;;
61477;SDS011;47345;52.334;10.392;2023-07-31T06:17:41;2.60;;;1.90;;
61477;SDS011;47345;52.334;10.392;2023-07-31T06:20:13;2.70;;;1.40;;
61477;SDS011;47345;52.334;10.392;2023-07-31T06:22:44;2.80;;;1.50;;
61477;SDS011;47345;52.334;10.392;2023-07-31T06:25:15;1.90;;;1.70;;
61477;SDS011;47345;52.334;10.392;2023-07-31T06:27:46;2.80;;;1.70;;
61477;SDS011;47345;52.334;10.392;2023-07-31T06:30:17;3.60;;;2.10;;
61477;SDS011;47345;52.334;10.392;2023-07-31T06:32:47;2.70;;;1.90;;
61477;SDS011;47345;52.334;10.392;2023-07-31T06:35:19;4.90;;;2.30;;
61477;SDS011;47345;52.334;10.392;2023-07-31T06:37:49;3.70;;;2.60;;
61477;SDS011;47345;52.334;10.392;2023-07-31T06:40:20;3.20;;;2.50;;
61477;SDS011;47345;52.334;10.392;2023-07-31T06:42:52;4.10;;;2.90;;
61477;SDS011;47345;52.334;10.392;2023-07-31T06:45:22;8.00;;;4.00;;
61477;SDS011;47345;52.334;10.392;2023-07-31T06:47:54;6.30;;;2.80;;
61477;SDS011;47345;52.334;10.392;2023-07-31T06:50:29;3.70;;;2.80;;
61477;SDS011;47345;52.334;10.392;2023-07-31T06:53:00;5.50;;;2.70;;
61477;SDS011;47345;52.334;10.392;2023-07-31T06:55:31;5.30;;;3.10;;
61477;SDS011;47345;52.334;10.392;2023-07-31T06:58:02;3.60;;;2.80;;
61477;SDS011;47345;52.334;10.392;2023-07-31T07:00:33;4.50;;;2.70;;
61477;SDS011;47345;52.334;10.392;2023-07-31T07:03:04;5.20;;;2.90;;
61477;SDS011;47345;52.334;10.392;2023-07-31T07:05:35;4.20;;;2.90;;
61477;SDS011;47345;52.334;10.392;2023-07-31T07:08:07;3.30;;;2.70;;
61477;SDS011;47345;52.334;10.392;2023-07-31T07:10:38;6.30;;;3.20;;
61477;SDS011;47345;52.334;10.392;2023-07-31T07:13:09;8.40;;;3.80;;
61477;SDS011;47345;52.334;10.392;2023-07-31T07:15:41;6.80;;;3.50;;
61477;SDS011;47345;52.334;10.392;2023-07-31T07:18:11;4.80;;;3.50;;
61477;SDS011;47345;52.334;10.392;2023-07-31T07:20:45;6.10;;;3.70;;
61477;SDS011;47345;52.334;10.392;2023-07-31T07:23:18;5.20;;;3.90;;
61477;SDS011;47345;52.334;10.392;2023-07-31T07:25:49;7.30;;;4.20;;
61477;SDS011;47345;52.334;10.392;2023-07-31T07:28:21;7.70;;;4.40;;
61477;SDS011;47345;52.334;10.392;2023-07-31T07:30:52;8.40;;;4.40;;
61477;SDS011;47345;52.334;10.392;2023-07-31T07:33:23;10.70;;;4.30;;
61477;SDS011;47345;52.334;10.392;2023-07-31T07:35:54;9.90;;;4.40;;
61477;SDS011;47345;52.334;10.392;2023-07-31T07:38:28;12.70;;;5.10;;
61477;SDS011;47345;52.334;10.392;2023-07-31T07:40:59;11.60;;;5.00;;
61477;SDS011;47345;52.334;10.392;2023-07-31T07:43:31;9.80;;;4.70;;
61477;SDS011;47345;52.334;10.392;2023-07-31T07:46:01;9.70;;;5.10;;
61477;SDS011;47345;52.334;10.392;2023-07-31T07:48:32;7.40;;;4.20;;
61477;SDS011;47345;52.334;10.392;2023-07-31T07:51:04;11.70;;;4.80;;
61477;SDS011;47345;52.334;10.392;2023-07-31T07:53:35;9.60;;;5.40;;
61477;SDS011;47345;52.334;10.392;2023-07-31T07:56:05;8.50;;;4.80;;
61477;SDS011;47345;52.334;10.392;2023-07-31T07:58:36;10.10;;;5.10;;
61477;SDS011;47345;52.334;10.392;2023-07-31T08:01:07;9.30;;;4.60;;
61477;SDS011;47345;52.334;10.392;2023-07-31T08:03:37;12.00;;;5.00;;
61477;SDS011;47345;52.334;10.392;2023-07-31T08:06:08;9.60;;;4.60;;
61477;SDS011;47345;52.334;10.392;2023-07-31T08:08:39;9.20;;;4.60;;
61477;SDS011;47345;52.334;10.392;2023-07-31T08:11:10;11.00;;;4.40;;
61477;SDS011;47345;52.334;10.392;2023-07-31T08:13:41;9.40;;;4.40;;
61477;SDS011;47345;52.334;10.392;2023-07-31T08:16:12;9.80;;;4.40;;
61477;SDS011;47345;52.334;10.392;2023-07-31T08:18:43;9.00;;;4.40;;
61477;SDS011;47345;52.334;10.392;2023-07-31T08:21:14;9.50;;;4.60;;
61477;SDS011;47345;52.334;10.392;2023-07-31T08:23:45;8.50;;;4.00;;
61477;SDS011;47345;52.334;10.392;2023-07-31T08:26:16;7.60;;;3.60;;
61477;SDS011;47345;52.334;10.392;2023-07-31T08:28:49;10.50;;;4.50;;
61477;SDS011;47345;52.334;10.392;2023-07-31T08:31:20;8.20;;;4.30;;
61477;SDS011;47345;52.334;10.392;2023-07-31T08:33:50;5.50;;;3.80;;
61477;SDS011;47345;52.334;10.392;2023-07-31T08:36:21;10.40;;;4.20;;
61477;SDS011;47345;52.334;10.392;2023-07-31T08:38:56;7.80;;;4.30;;
61477;SDS011;47345;52.334;10.392;2023-07-31T08:41:27;9.30;;;3.50;;
61477;SDS011;47345;52.334;10.392;2023-07-31T08:43:58;9.70;;;3.60;;
61477;SDS011;47345;52.334;10.392;2023-07-31T08:46:30;9.50;;;3.60;;
61477;SDS011;47345;52.334;10.392;2023-07-31T08:49:01;7.40;;;4.20;;
61477;SDS011;47345;52.334;10.392;2023-07-31T08:51:35;6.20;;;4.00;;
61477;SDS011;47345;52.334;10.392;2023-07-31T08:54:07;12.80;;;4.00;;
61477;SDS011;47345;52.334;10.392;2023-07-31T08:56:38;7.90;;;4.00;;
61477;SDS011;47345;52.334;10.392;2023-07-31T08:59:09;7.10;;;3.80;;
61477;SDS011;47345;52.334;10.392;2023-07-31T09:01:47;7.60;;;4.00;;
61477;SDS011;47345;52.334;10.392;2023-07-31T09:04:22;9.20;;;3.80;;
61477;SDS011;47345;52.334;10.392;2023-07-31T09:06:55;7.30;;;4.10;;
61477;SDS011;47345;52.334;10.392;2023-07-31T09:09:29;7.20;;;4.10;;
61477;SDS011;47345;52.334;10.392;2023-07-31T09:12:00;6.90;;;3.70;;
61477;SDS011;47345;52.334;10.392;2023-07-31T09:14:32;9.50;;;4.30;;
61477;SDS011;47345;52.334;10.392;2023-07-31T09:17:03;7.20;;;3.40;;
61477;SDS011;47345;52.334;10.392;2023-07-31T09:19:35;13.70;;;4.20;;
61477;SDS011;47345;52.334;10.392;2023-07-31T09:22:07;7.30;;;4.10;;
61477;SDS011;47345;52.334;10.392;2023-07-31T09:24:38;9.10;;;4.10;;
61477;SDS011;47345;52.334;10.392;2023-07-31T09:27:09;7.80;;;3.90;;
61477;SDS011;47345;52.334;10.392;2023-07-31T09:29:40;11.50;;;4.20;;
61477;SDS011;47345;52.334;10.392;2023-07-31T09:32:16;11.20;;;3.70;;
61477;SDS011;47345;52.334;10.392;2023-07-31T09:34:47;6.90;;;3.20;;
61477;SDS011;47345;52.334;10.392;2023-07-31T09:37:18;6.90;;;3.70;;
61477;SDS011;47345;52.334;10.392;2023-07-31T09:39:49;9.80;;;3.50;;
61477;SDS011;47345;52.334;10.392;2023-07-31T09:42:26;9.40;;;3.50;;
61477;SDS011;47345;52.334;10.392;2023-07-31T09:45:07;7.70;;;3.10;;
61477;SDS011;47345;52.334;10.392;2023-07-31T09:47:47;6.00;;;2.80;;
61477;SDS011;47345;52.334;10.392;2023-07-31T09:50:19;6.30;;;3.00;;
61477;SDS011;47345;52.334;10.392;2023-07-31T09:52:51;4.10;;;2.70;;
61477;SDS011;47345;52.334;10.392;2023-07-31T09:55:22;6.80;;;2.80;;
61477;SDS011;47345;52.334;10.392;2023-07-31T09:57:53;4.40;;;2.30;;
61477;SDS011;47345;52.334;10.392;2023-07-31T10:00:26;3.50;;;2.20;;
61477;SDS011;47345;52.334;10.392;2023-07-31T10:02:59;4.70;;;2.30;;
61477;SDS011;47345;52.334;10.392;2023-07-31T10:05:34;7.80;;;2.20;;
61477;SDS011;47345;52.334;10.392;2023-07-31T10:08:09;4.10;;;2.30;;
61477;SDS011;47345;52.334;10.392;2023-07-31T10:10:43;3.80;;;2.30;;
61477;SDS011;47345;52.334;10.392;2023-07-31T10:13:15;3.30;;;2.30;;
61477;SDS011;47345;52.334;10.392;2023-07-31T10:15:47;4.20;;;2.20;;
61477;SDS011;47345;52.334;10.392;2023-07-31T10:18:18;5.00;;;2.80;;
61477;SDS011;47345;52.334;10.392;2023-07-31T10:20:50;3.80;;;2.40;;
61477;SDS011;47345;52.334;10.392;2023-07-31T10:23:24;3.40;;;2.20;;
61477;SDS011;47345;52.334;10.392;2023-07-31T10:25:55;3.50;;;2.50;;
61477;SDS011;47345;52.334;10.392;2023-07-31T10:28:27;5.90;;;2.30;;
61477;SDS011;47345;52.334;10.392;2023-07-31T10:31:01;3.00;;;2.40;;
61477;SDS011;47345;52.334;10.392;2023-07-31T10:33:33;5.60;;;2.60;;
61477;SDS011;47345;52.334;10.392;2023-07-31T10:38:51;5.20;;;2.80;;
61477;SDS011;47345;52.334;10.392;2023-07-31T10:41:21;4.00;;;2.30;;
61477;SDS011;47345;52.334;10.392;2023-07-31T10:43:59;3.20;;;2.30;;
61477;SDS011;47345;52.334;10.392;2023-07-31T10:46:32;4.20;;;2.40;;
61477;SDS011;47345;52.334;10.392;2023-07-31T10:49:03;4.80;;;2.50;;
61477;SDS011;47345;52.334;10.392;2023-07-31T10:51:34;9.20;;;2.70;;
61477;SDS011;47345;52.334;10.392;2023-07-31T10:54:11;2.80;;;2.20;;
61477;SDS011;47345;52.334;10.392;2023-07-31T10:56:46;5.90;;;2.60;;
61477;SDS011;47345;52.334;10.392;2023-07-31T10:59:20;6.80;;;2.60;;
61477;SDS011;47345;52.334;10.392;2023-07-31T11:02:03;4.20;;;2.30;;
61477;SDS011;47345;52.334;10.392;2023-07-31T11:07:49;5.30;;;2.40;;
61477;SDS011;47345;52.334;10.392;2023-07-31T11:10:20;4.10;;;2.30;;
61477;SDS011;47345;52.334;10.392;2023-07-31T11:12:53;10.10;;;2.50;;
61477;SDS011;47345;52.334;10.392;2023-07-31T11:15:24;3.50;;;2.10;;
61477;SDS011;47345;52.334;10.392;2023-07-31T11:17:57;3.20;;;2.30;;
61477;SDS011;47345;52.334;10.392;2023-07-31T11:20:31;2.70;;;2.10;;
61477;SDS011;47345;52.334;10.392;2023-07-31T11:23:02;2.90;;;2.00;;
61477;SDS011;47345;52.334;10.392;2023-07-31T11:25:35;4.90;;;2.00;;
61477;SDS011;47345;52.334;10.392;2023-07-31T11:28:09;5.00;;;2.50;;
61477;SDS011;47345;52.334;10.392;2023-07-31T11:30:40;3.40;;;2.10;;
61477;SDS011;47345;52.334;10.392;2023-07-31T11:33:13;3.40;;;2.00;;
61477;SDS011;47345;52.334;10.392;2023-07-31T11:35:44;2.80;;;2.10;;
61477;SDS011;47345;52.334;10.392;2023-07-31T11:38:22;5.10;;;2.10;;
61477;SDS011;47345;52.334;10.392;2023-07-31T11:43:24;7.30;;;2.20;;
61477;SDS011;47345;52.334;10.392;2023-07-31T11:45:55;2.40;;;2.10;;
61477;SDS011;47345;52.334;10.392;2023-07-31T11:48:28;3.00;;;2.10;;
61477;SDS011;47345;52.334;10.392;2023-07-31T11:51:02;2.50;;;2.10;;
61477;SDS011;47345;52.334;10.392;2023-07-31T11:53:35;5.20;;;2.10;;
61477;SDS011;47345;52.334;10.392;2023-07-31T11:56:10;3.10;;;2.00;;
61477;SDS011;47345;52.334;10.392;2023-07-31T11:58:43;3.70;;;2.10;;
61477;SDS011;47345;52.334;10.392;2023-07-31T12:01:17;2.40;;;1.80;;
61477;SDS011;47345;52.334;10.392;2023-07-31T12:03:50;8.00;;;2.50;;
61477;SDS011;47345;52.334;10.392;2023-07-31T12:06:21;2.80;;;1.90;;
61477;SDS011;47345;52.334;10.392;2023-07-31T12:09:02;2.80;;;2.00;;
61477;SDS011;47345;52.334;10.392;2023-07-31T12:11:43;2.40;;;1.80;;
61477;SDS011;47345;52.334;10.392;2023-07-31T12:14:21;2.70;;;1.80;;
61477;SDS011;47345;52.334;10.392;2023-07-31T12:16:56;2.70;;;1.60;;
61477;SDS011;47345;52.334;10.392;2023-07-31T12:19:28;2.60;;;2.10;;
61477;SDS011;47345;52.334;10.392;2023-07-31T12:22:00;2.70;;;1.90;;
61477;SDS011;47345;52.334;10.392;2023-07-31T12:24:31;3.50;;;1.90;;
61477;SDS011;47345;52.334;10.392;2023-07-31T12:27:09;3.40;;;1.80;;
61477;SDS011;47345;52.334;10.392;2023-07-31T12:29:41;1.80;;;1.70;;
61477;SDS011;47345;52.334;10.392;2023-07-31T12:32:22;2.90;;;1.70;;
61477;SDS011;47345;52.334;10.392;2023-07-31T12:34:56;1.90;;;1.50;;
61477;SDS011;47345;52.334;10.392;2023-07-31T12:37:30;4.40;;;1.90;;
61477;SDS011;47345;52.334;10.392;2023-07-31T12:40:01;2.20;;;1.60;;
61477;SDS011;47345;52.334;10.392;2023-07-31T12:42:36;2.10;;;1.70;;
61477;SDS011;47345;52.334;10.392;2023-07-31T12:45:07;2.10;;;1.70;;
61477;SDS011;47345;52.334;10.392;2023-07-31T12:47:39;5.40;;;1.70;;
61477;SDS011;47345;52.334;10.392;2023-07-31T12:50:10;1.90;;;1.60;;
61477;SDS011;47345;52.334;10.392;2023-07-31T12:52:41;1.60;;;1.50;;
61477;SDS011;47345;52.334;10.392;2023-07-31T12:55:11;4.20;;;1.60;;
61477;SDS011;47345;52.334;10.392;2023-07-31T12:57:43;4.40;;;1.70;;
61477;SDS011;47345;52.334;10.392;2023-07-31T13:00:14;5.20;;;1.80;;
61477;SDS011;47345;52.334;10.392;2023-07-31T13:02:45;1.50;;;1.40;;
61477;SDS011;47345;52.334;10.392;2023-07-31T13:05:16;1.80;;;1.40;;
61477;SDS011;47345;52.334;10.392;2023-07-31T13:07:48;3.60;;;1.80;;
61477;SDS011;47345;52.334;10.392;2023-07-31T13:10:22;3.10;;;1.30;;
61477;SDS011;47345;52.334;10.392;2023-07-31T13:12:55;1.90;;;1.60;;
61477;SDS011;47345;52.334;10.392;2023-07-31T13:15:25;1.40;;;1.30;;
61477;SDS011;47345;52.334;10.392;2023-07-31T13:17:56;2.00;;;1.40;;
61477;SDS011;47345;52.334;10.392;2023-07-31T13:20:27;3.10;;;1.30;;
61477;SDS011;47345;52.334;10.392;2023-07-31T13:22:59;1.30;;;1.20;;
61477;SDS011;47345;52.334;10.392;2023-07-31T13:25:30;1.40;;;1.30;;
61477;SDS011;47345;52.334;10.392;2023-07-31T13:28:01;1.60;;;1.20;;
61477;SDS011;47345;52.334;10.392;2023-07-31T13:30:33;1.50;;;1.20;;
61477;SDS011;47345;52.334;10.392;2023-07-31T13:33:03;1.20;;;1.00;;
61477;SDS011;47345;52.334;10.392;2023-07-31T13:35:48;1.70;;;1.20;;
61477;SDS011;47345;52.334;10.392;2023-07-31T13:38:19;1.30;;;1.00;;
61477;SDS011;47345;52.334;10.392;2023-07-31T13:40:51;0.90;;;0.90;;
61477;SDS011;47345;52.334;10.392;2023-07-31T13:43:22;1.20;;;1.10;;
61477;SDS011;47345;52.334;10.392;2023-07-31T13:45:53;1.10;;;1.00;;
61477;SDS011;47345;52.334;10.392;2023-07-31T13:48:23;1.10;;;0.90;;
61477;SDS011;47345;52.334;10.392;2023-07-31T13:50:54;0.70;;;0.70;;
61477;SDS011;47345;52.334;10.392;2023-07-31T13:53:25;0.70;;;0.70;;
61477;SDS011;47345;52.334;10.392;2023-07-31T13:55:56;1.10;;;0.90;;
61477;SDS011;47345;52.334;10.392;2023-07-31T13:58:26;1.30;;;1.00;;
61477;SDS011;47345;52.334;10.392;2023-07-31T14:00:58;1.30;;;1.10;;
61477;SDS011;47345;52.334;10.392;2023-07-31T14:03:28;0.70;;;0.70;;
61477;SDS011;47345;52.334;10.392;2023-07-31T14:05:59;1.20;;;1.10;;
61477;SDS011;47345;52.334;10.392;2023-07-31T14:08:30;1.80;;;1.00;;
61477;SDS011;47345;52.334;10.392;2023-07-31T14:11:01;1.30;;;0.70;;
61477;SDS011;47345;52.334;10.392;2023-07-31T14:13:33;0.50;;;0.50;;
61477;SDS011;47345;52.334;10.392;2023-07-31T14:16:03;0.70;;;0.70;;
61477;SDS011;47345;52.334;10.392;2023-07-31T14:18:34;0.60;;;0.60;;
61477;SDS011;47345;52.334;10.392;2023-07-31T14:21:06;0.80;;;0.80;;
61477;SDS011;47345;52.334;10.392;2023-07-31T14:23:37;0.60;;;0.60;;
61477;SDS011;47345;52.334;10.392;2023-07-31T14:26:08;0.70;;;0.50;;
61477;SDS011;47345;52.334;10.392;2023-07-31T14:28:38;1.30;;;0.60;;
61477;SDS011;47345;52.334;10.392;2023-07-31T14:31:10;0.70;;;0.70;;
61477;SDS011;47345;52.334;10.392;2023-07-31T14:33:41;0.90;;;0.90;;
61477;SDS011;47345;52.334;10.392;2023-07-31T14:36:12;1.20;;;0.90;;
61477;SDS011;47345;52.334;10.392;2023-07-31T14:38:43;0.70;;;0.70;;
61477;SDS011;47345;52.334;10.392;2023-07-31T14:41:13;1.50;;;0.90;;
61477;SDS011;47345;52.334;10.392;2023-07-31T14:43:44;1.00;;;0.90;;
61477;SDS011;47345;52.334;10.392;2023-07-31T14:46:15;1.20;;;0.60;;
61477;SDS011;47345;52.334;10.392;2023-07-31T14:48:46;1.10;;;1.10;;
61477;SDS011;47345;52.334;10.392;2023-07-31T14:51:16;1.60;;;0.70;;
61477;SDS011;47345;52.334;10.392;2023-07-31T14:53:47;1.20;;;0.80;;
61477;SDS011;47345;52.334;10.392;2023-07-31T14:56:18;0.80;;;0.80;;
61477;SDS011;47345;52.334;10.392;2023-07-31T14:58:49;1.10;;;1.00;;
61477;SDS011;47345;52.334;10.392;2023-07-31T15:01:19;2.60;;;0.90;;
61477;SDS011;47345;52.334;10.392;2023-07-31T15:03:50;3.00;;;1.00;;
61477;SDS011;47345;52.334;10.392;2023-07-31T15:06:21;0.80;;;0.80;;
61477;SDS011;47345;52.334;10.392;2023-07-31T15:08:52;0.80;;;0.80;;